Time;durP1;ratioP1;P1;durP2;ratioP2;P2;SDS_P1;SDS_P2;PMS_P1;PMS_P2;Temp;Humidity;BMP_temperature;BMP_pressure;BME280_temperature;BME280_humidity;BME280_pressure;Samples;Min_cycle;Max_cycle;Signal;HPM_P1;HPM_P2
2024/03/09 00:02:16;;;;;;;24.90;14.20;;;6.50;99.90;;;;;;798276;180;26457;-78
2024/03/09 00:04:43;;;;;;;26.23;14.30;;;6.60;99.90;;;;;;798054;179;26455;-78
2024/03/09 00:07:11;;;;;;;25.73;14.03;;;6.60;99.90;;;;;;796044;179;26443;-78
2024/03/09 00:09:36;;;;;;;24.27;13.87;;;6.60;99.90;;;;;;794487;179;26512;-79
2024/03/09 00:12:04;;;;;;;22.73;14.10;;;6.60;99.90;;;;;;796169;180;26495;-78
2024/03/09 00:14:30;;;;;;;24.53;13.77;;;6.60;99.90;;;;;;793373;180;26467;-79
2024/03/09 00:16:56;;;;;;;23.73;13.77;;;6.60;99.90;;;;;;795851;180;26494;-79
2024/03/09 00:19:23;;;;;;;25.83;14.23;;;6.70;99.90;;;;;;795403;180;27058;-80
2024/03/09 00:21:49;;;;;;;22.73;14.47;;;6.60;99.90;;;;;;798486;179;26444;-79
2024/03/09 00:24:16;;;;;;;21.87;13.23;;;6.60;99.90;;;;;;797643;180;26461;-80
2024/03/09 00:26:43;;;;;;;23.33;13.80;;;6.60;99.90;;;;;;796430;180;26493;-80
2024/03/09 00:29:09;;;;;;;24.10;13.37;;;6.60;99.90;;;;;;796093;180;26529;-80
2024/03/09 00:31:36;;;;;;;22.33;13.73;;;6.50;99.90;;;;;;796618;179;26450;-80
2024/03/09 00:34:03;;;;;;;22.07;13.80;;;6.50;99.90;;;;;;796047;180;26601;-81
2024/03/09 00:36:29;;;;;;;26.10;14.50;;;6.50;99.90;;;;;;796198;180;26597;-79
2024/03/09 00:38:56;;;;;;;23.40;14.10;;;6.50;99.90;;;;;;797360;180;26495;-80
2024/03/09 00:41:22;;;;;;;24.27;13.93;;;6.50;99.90;;;;;;796529;179;26451;-80
2024/03/09 00:43:54;;;;;;;24.57;13.73;;;6.50;99.90;;;;;;800263;179;26474;-81
2024/03/09 00:46:16;;;;;;;23.53;14.00;;;6.50;99.90;;;;;;798403;177;26442;-79
2024/03/09 00:48:43;;;;;;;23.03;14.30;;;6.50;99.90;;;;;;798899;180;26458;-81
2024/03/09 00:51:10;;;;;;;23.10;13.67;;;6.40;99.90;;;;;;801766;178;26441;-80
2024/03/09 00:53:36;;;;;;;26.07;14.90;;;6.50;99.90;;;;;;800393;179;26447;-79
2024/03/09 00:56:05;;;;;;;24.97;14.73;;;6.40;99.90;;;;;;800586;179;26443;-79
2024/03/09 00:58:29;;;;;;;24.33;14.10;;;6.40;99.90;;;;;;795097;180;26518;-81
2024/03/09 01:00:55;;;;;;;24.13;14.80;;;6.40;99.90;;;;;;796832;180;27003;-80
2024/03/09 01:03:22;;;;;;;23.40;14.07;;;6.40;99.90;;;;;;798835;179;26492;-80
2024/03/09 01:05:49;;;;;;;22.47;14.10;;;6.40;99.90;;;;;;798660;180;26439;-80
2024/03/09 01:08:15;;;;;;;22.07;14.13;;;6.40;99.90;;;;;;799425;177;26507;-80
2024/03/09 01:10:42;;;;;;;23.33;14.40;;;6.40;99.90;;;;;;797626;179;26448;-79
2024/03/09 01:13:09;;;;;;;22.20;14.40;;;6.40;99.90;;;;;;799216;179;26458;-81
2024/03/09 01:15:35;;;;;;;24.60;14.43;;;6.30;99.90;;;;;;798780;177;27020;-79
2024/03/09 01:18:02;;;;;;;25.07;14.73;;;6.40;99.90;;;;;;799073;180;26467;-79
2024/03/09 01:20:29;;;;;;;22.57;14.27;;;6.40;99.90;;;;;;796059;180;26475;-80
2024/03/09 01:22:55;;;;;;;23.30;14.10;;;6.40;99.90;;;;;;799395;180;26451;-81
2024/03/09 01:25:22;;;;;;;21.63;13.53;;;6.30;99.90;;;;;;797131;179;26667;-79
2024/03/09 01:27:49;;;;;;;23.27;13.27;;;6.40;99.90;;;;;;799950;179;26468;-80
2024/03/09 01:30:15;;;;;;;26.73;14.77;;;6.40;99.90;;;;;;797765;179;26434;-80
2024/03/09 01:32:43;;;;;;;24.70;13.87;;;6.30;99.90;;;;;;795643;179;26479;-79
2024/03/09 01:35:09;;;;;;;22.53;13.40;;;6.40;99.90;;;;;;793625;177;26444;-78
2024/03/09 01:37:35;;;;;;;21.97;13.93;;;6.40;99.90;;;;;;793695;179;26466;-78
2024/03/09 01:40:03;;;;;;;25.33;13.93;;;6.40;99.90;;;;;;797564;179;26463;-78
2024/03/09 01:42:29;;;;;;;24.17;14.20;;;6.40;99.90;;;;;;793815;180;26454;-78
2024/03/09 01:44:55;;;;;;;23.17;13.77;;;6.50;99.90;;;;;;795062;180;27259;-79
2024/03/09 01:47:23;;;;;;;23.37;13.30;;;6.60;99.90;;;;;;796027;179;26455;-79
2024/03/09 01:49:50;;;;;;;26.73;14.80;;;6.60;99.90;;;;;;796813;180;26609;-77
2024/03/09 01:52:17;;;;;;;21.47;13.23;;;6.60;99.90;;;;;;795697;179;26599;-79
2024/03/09 01:54:43;;;;;;;22.40;13.87;;;6.60;99.90;;;;;;786592;182;26444;-79
2024/03/09 01:57:13;;;;;;;23.13;13.90;;;6.70;99.90;;;;;;798648;180;26776;-79
2024/03/09 01:59:37;;;;;;;22.27;13.00;;;6.70;99.90;;;;;;798956;180;26474;-79
2024/03/09 02:02:04;;;;;;;22.47;13.83;;;6.70;99.90;;;;;;789952;181;26471;-79
2024/03/09 02:04:30;;;;;;;22.73;14.27;;;6.60;99.90;;;;;;790728;181;27013;-79
2024/03/09 02:06:57;;;;;;;24.10;14.27;;;6.60;99.90;;;;;;788328;181;26489;-79
2024/03/09 02:09:25;;;;;;;23.00;14.53;;;6.60;99.90;;;;;;799530;179;27112;-78
2024/03/09 02:11:51;;;;;;;24.70;14.20;;;6.60;99.90;;;;;;796219;179;26415;-81
2024/03/09 02:14:17;;;;;;;27.20;15.27;;;6.70;99.90;;;;;;798710;179;26442;-80
2024/03/09 02:16:43;;;;;;;20.33;13.17;;;6.70;99.90;;;;;;799413;179;26483;-79
2024/03/09 02:19:13;;;;;;;21.60;12.83;;;6.60;99.90;;;;;;786837;181;26496;-79
2024/03/09 02:21:37;;;;;;;23.80;14.33;;;6.70;99.90;;;;;;788509;182;26979;-79
2024/03/09 02:24:07;;;;;;;20.83;13.63;;;6.70;99.90;;;;;;800326;179;26447;-79
2024/03/09 02:26:36;;;;;;;23.80;14.33;;;6.70;99.90;;;;;;798893;179;26449;-79
2024/03/09 02:28:59;;;;;;;21.83;13.03;;;6.70;99.90;;;;;;787362;182;26473;-80
2024/03/09 02:31:26;;;;;;;22.60;13.03;;;6.70;99.90;;;;;;797241;179;26468;-78
2024/03/09 02:33:53;;;;;;;23.07;14.83;;;6.80;99.90;;;;;;796700;179;26469;-79
2024/03/09 02:36:27;;;;;;;23.50;13.57;;;6.70;99.90;;;;;;798125;179;26451;-78
2024/03/09 02:38:53;;;;;;;24.10;14.20;;;6.80;99.90;;;;;;795507;179;26472;-80
2024/03/09 02:41:19;;;;;;;25.20;15.13;;;6.80;99.90;;;;;;796110;180;26476;-80
2024/03/09 02:43:46;;;;;;;24.30;13.90;;;6.70;99.90;;;;;;785106;181;26440;-79
2024/03/09 02:46:15;;;;;;;22.17;13.73;;;6.80;99.90;;;;;;795200;179;26459;-79
2024/03/09 02:48:39;;;;;;;22.97;12.90;;;6.90;99.90;;;;;;784113;181;26921;-79
2024/03/09 02:51:08;;;;;;;25.70;13.43;;;6.80;99.90;;;;;;797997;179;26596;-80
2024/03/09 02:53:35;;;;;;;25.50;15.37;;;6.80;99.90;;;;;;795694;180;26452;-79
2024/03/09 02:55:59;;;;;;;23.60;14.17;;;6.80;99.90;;;;;;796598;180;26526;-79
2024/03/09 02:58:26;;;;;;;25.90;14.13;;;6.80;99.90;;;;;;795835;180;26474;-80
2024/03/09 03:00:53;;;;;;;21.60;14.07;;;6.80;99.90;;;;;;796815;179;26505;-80
2024/03/09 03:05:52;;;;;;;22.37;12.83;;;6.80;99.90;;;;;;786601;181;26474;-79
2024/03/09 03:08:18;;;;;;;20.70;13.37;;;6.80;99.90;;;;;;788423;181;26465;-79
2024/03/09 03:10:46;;;;;;;25.07;14.10;;;6.80;99.90;;;;;;787722;182;26487;-79
2024/03/09 03:13:14;;;;;;;22.67;14.50;;;6.80;99.90;;;;;;788419;180;26449;-81
2024/03/09 03:15:38;;;;;;;24.40;13.60;;;6.80;99.90;;;;;;788784;180;26986;-80
2024/03/09 03:18:07;;;;;;;22.90;13.77;;;6.80;99.90;;;;;;788031;181;28111;-78
2024/03/09 03:20:33;;;;;;;23.93;13.97;;;6.80;99.90;;;;;;788198;181;27067;-79
2024/03/09 03:22:59;;;;;;;21.13;13.73;;;6.80;99.90;;;;;;787975;181;26475;-79
2024/03/09 03:25:25;;;;;;;21.90;14.40;;;6.80;99.90;;;;;;788934;182;26503;-79
2024/03/09 03:27:52;;;;;;;23.33;14.60;;;6.80;99.90;;;;;;789509;181;26497;-80
2024/03/09 03:30:19;;;;;;;24.33;14.10;;;6.80;99.90;;;;;;800020;179;26990;-81
2024/03/09 03:32:45;;;;;;;22.70;14.30;;;6.80;99.90;;;;;;799586;179;26446;-77
2024/03/09 03:35:12;;;;;;;23.97;14.03;;;6.80;99.90;;;;;;799968;176;27055;-80
2024/03/09 03:37:39;;;;;;;25.03;14.63;;;6.90;99.90;;;;;;799972;179;26596;-80
2024/03/09 03:40:07;;;;;;;24.10;15.00;;;6.90;99.90;;;;;;787815;181;26450;-79
2024/03/09 03:42:33;;;;;;;27.20;15.43;;;6.90;99.90;;;;;;789189;181;26985;-79
2024/03/09 03:45:00;;;;;;;24.33;14.50;;;6.90;99.90;;;;;;787711;181;26470;-80
2024/03/09 03:47:28;;;;;;;25.07;14.07;;;6.90;99.90;;;;;;788440;181;26436;-80
2024/03/09 03:49:53;;;;;;;25.70;15.27;;;6.90;99.90;;;;;;789289;181;26453;-80
2024/03/09 03:52:20;;;;;;;21.60;13.97;;;6.90;99.90;;;;;;789965;182;26464;-80
2024/03/09 03:54:47;;;;;;;25.03;13.80;;;6.80;99.90;;;;;;787671;181;26429;-80
2024/03/09 03:57:13;;;;;;;24.73;15.10;;;6.80;99.90;;;;;;790011;182;26437;-78
2024/03/09 03:59:40;;;;;;;24.10;13.83;;;6.80;99.90;;;;;;789179;181;26468;-79
2024/03/09 04:02:07;;;;;;;25.93;15.33;;;6.80;99.90;;;;;;786553;182;26995;-79
2024/03/09 04:04:34;;;;;;;25.27;14.60;;;6.80;99.90;;;;;;785799;182;26455;-79
2024/03/09 04:07:00;;;;;;;24.47;15.07;;;6.80;99.90;;;;;;787502;181;26448;-80
2024/03/09 04:09:26;;;;;;;23.80;15.00;;;6.70;99.90;;;;;;788407;182;26467;-78
2024/03/09 04:11:53;;;;;;;25.93;14.83;;;6.70;99.90;;;;;;788123;182;26620;-80
2024/03/09 04:14:26;;;;;;;24.83;14.87;;;6.70;99.90;;;;;;789527;181;26481;-79
2024/03/09 04:16:46;;;;;;;24.47;15.23;;;6.70;99.90;;;;;;784001;181;26988;-80
2024/03/09 04:19:13;;;;;;;28.03;15.27;;;6.60;99.90;;;;;;787578;181;27293;-78
2024/03/09 04:21:40;;;;;;;26.73;15.27;;;6.60;99.90;;;;;;788164;180;26463;-80
2024/03/09 04:24:06;;;;;;;27.47;16.27;;;6.60;99.90;;;;;;787646;180;26582;-80
2024/03/09 04:26:33;;;;;;;29.97;16.47;;;6.60;99.90;;;;;;791461;179;26451;-79
2024/03/09 04:29:01;;;;;;;24.63;14.47;;;6.60;99.90;;;;;;789825;181;26461;-80
2024/03/09 04:31:26;;;;;;;27.33;15.67;;;6.60;99.90;;;;;;789383;181;26517;-79
2024/03/09 04:33:53;;;;;;;28.30;15.83;;;6.60;99.90;;;;;;788386;181;26447;-80
2024/03/09 04:36:19;;;;;;;24.57;14.87;;;6.60;99.90;;;;;;789699;181;26441;-78
2024/03/09 04:38:46;;;;;;;25.97;16.17;;;6.60;99.90;;;;;;787952;181;26479;-78
2024/03/09 04:41:12;;;;;;;26.87;15.63;;;6.60;99.90;;;;;;786197;182;26454;-79
2024/03/09 04:43:40;;;;;;;30.93;16.57;;;6.60;99.90;;;;;;787850;181;26447;-77
2024/03/09 04:46:07;;;;;;;27.23;15.87;;;6.60;99.90;;;;;;787044;181;26450;-79
2024/03/09 04:48:32;;;;;;;30.10;16.43;;;6.60;99.90;;;;;;787613;182;26471;-79
2024/03/09 04:50:59;;;;;;;26.17;15.97;;;6.60;99.90;;;;;;787604;182;26443;-79
2024/03/09 04:53:25;;;;;;;28.57;15.23;;;6.60;99.90;;;;;;788737;181;26462;-79
2024/03/09 04:55:53;;;;;;;24.23;14.23;;;6.60;99.90;;;;;;787457;181;26487;-78
2024/03/09 04:58:19;;;;;;;27.97;17.20;;;6.60;99.90;;;;;;786820;182;26467;-79
2024/03/09 05:00:45;;;;;;;30.30;16.87;;;6.60;99.90;;;;;;788688;181;26637;-79
2024/03/09 05:03:13;;;;;;;29.17;16.80;;;6.60;99.90;;;;;;787799;181;26611;-80
2024/03/09 05:05:40;;;;;;;27.73;15.63;;;6.50;99.90;;;;;;787227;182;26445;-79
2024/03/09 05:08:06;;;;;;;31.40;17.27;;;6.50;99.90;;;;;;798940;179;26587;-79
2024/03/09 05:10:33;;;;;;;28.17;16.17;;;6.50;99.90;;;;;;798017;180;26463;-80
2024/03/09 05:13:00;;;;;;;30.13;17.40;;;6.40;99.90;;;;;;797904;178;26426;-80
2024/03/09 05:15:29;;;;;;;27.13;17.07;;;6.40;99.90;;;;;;799127;178;26574;-79
2024/03/09 05:17:56;;;;;;;29.80;16.60;;;6.40;99.90;;;;;;788107;181;26461;-80
2024/03/09 05:20:23;;;;;;;27.60;16.60;;;6.40;99.90;;;;;;798478;179;26446;-79
2024/03/09 05:22:49;;;;;;;28.57;16.30;;;6.40;99.90;;;;;;798669;180;27031;-79
2024/03/09 05:25:17;;;;;;;30.67;17.20;;;6.40;99.90;;;;;;785416;181;26488;-80
2024/03/09 05:27:42;;;;;;;32.77;16.80;;;6.40;99.90;;;;;;799173;179;26430;-81
2024/03/09 05:30:13;;;;;;;30.20;16.93;;;6.40;99.90;;;;;;785508;182;26449;-80
2024/03/09 05:32:37;;;;;;;27.73;16.60;;;6.40;99.90;;;;;;797395;179;26451;-80
2024/03/09 05:35:03;;;;;;;28.37;16.53;;;6.40;99.90;;;;;;797709;179;26458;-78
2024/03/09 05:37:30;;;;;;;28.40;16.43;;;6.40;99.90;;;;;;799855;178;26438;-79
2024/03/09 05:39:57;;;;;;;30.00;16.57;;;6.40;99.90;;;;;;797545;179;27017;-79
2024/03/09 05:42:23;;;;;;;29.10;15.53;;;6.40;99.90;;;;;;799318;179;26437;-80
2024/03/09 05:44:50;;;;;;;28.10;17.03;;;6.40;99.90;;;;;;797961;176;26450;-80
2024/03/09 05:47:16;;;;;;;31.57;17.67;;;6.40;99.90;;;;;;799730;179;26450;-79
2024/03/09 05:49:44;;;;;;;27.27;16.23;;;6.40;99.90;;;;;;797685;179;26577;-80
2024/03/09 05:52:10;;;;;;;27.70;15.93;;;6.40;99.90;;;;;;786028;182;26439;-79
2024/03/09 05:54:36;;;;;;;32.27;17.90;;;6.30;99.90;;;;;;789249;181;26445;-80
2024/03/09 05:57:03;;;;;;;28.90;17.00;;;6.40;99.90;;;;;;789676;181;26440;-80
2024/03/09 05:59:32;;;;;;;28.60;16.80;;;6.40;99.90;;;;;;789705;180;26484;-80
2024/03/09 06:01:56;;;;;;;32.37;18.03;;;6.40;99.90;;;;;;787621;181;26458;-80
2024/03/09 06:04:23;;;;;;;31.93;17.43;;;6.30;99.90;;;;;;789279;182;26445;-83
2024/03/09 06:06:49;;;;;;;31.67;16.47;;;6.30;99.90;;;;;;788584;182;26576;-81
2024/03/09 06:09:16;;;;;;;27.30;16.90;;;6.30;99.90;;;;;;789455;182;26478;-79
2024/03/09 06:11:43;;;;;;;28.93;17.60;;;6.30;99.90;;;;;;788429;182;27006;-80
2024/03/09 06:14:10;;;;;;;30.00;17.20;;;6.30;99.90;;;;;;788474;181;26579;-79
2024/03/09 06:16:36;;;;;;;30.10;16.97;;;6.30;99.90;;;;;;787626;181;26585;-79
2024/03/09 06:19:02;;;;;;;32.63;17.93;;;6.30;99.90;;;;;;786255;181;27061;-79
2024/03/09 06:21:31;;;;;;;30.13;17.33;;;6.30;99.90;;;;;;785656;181;26479;-80
2024/03/09 06:23:56;;;;;;;33.30;17.70;;;6.30;99.90;;;;;;786761;182;26452;-80
2024/03/09 06:26:22;;;;;;;29.60;16.13;;;6.30;99.90;;;;;;787026;182;28058;-80
2024/03/09 06:28:49;;;;;;;29.17;16.93;;;6.30;99.90;;;;;;787784;182;26469;-79
2024/03/09 06:31:16;;;;;;;28.27;16.87;;;6.30;99.90;;;;;;786647;181;26455;-79
2024/03/09 06:33:42;;;;;;;30.13;17.20;;;6.30;99.90;;;;;;787517;180;26992;-82
2024/03/09 06:36:12;;;;;;;28.87;17.00;;;6.30;99.90;;;;;;789006;181;27649;-79
2024/03/09 06:38:37;;;;;;;28.57;17.07;;;6.30;99.90;;;;;;787316;182;27067;-79
2024/03/09 06:41:02;;;;;;;31.70;17.30;;;6.30;99.90;;;;;;788161;181;26473;-79
2024/03/09 06:43:31;;;;;;;33.30;19.10;;;6.30;99.90;;;;;;787799;182;26626;-80
2024/03/09 06:45:59;;;;;;;31.03;17.10;;;6.30;99.90;;;;;;787648;181;26445;-80
2024/03/09 06:48:23;;;;;;;29.20;17.70;;;6.30;99.90;;;;;;788804;179;26515;-79
2024/03/09 06:50:49;;;;;;;32.20;17.43;;;6.20;99.90;;;;;;791033;181;26463;-79
2024/03/09 06:53:15;;;;;;;30.00;17.43;;;6.20;99.90;;;;;;800037;179;26446;-79
2024/03/09 06:55:42;;;;;;;32.13;18.00;;;6.20;99.90;;;;;;801729;179;26451;-79
2024/03/09 06:58:09;;;;;;;31.07;17.07;;;6.20;99.90;;;;;;800570;179;26516;-79
2024/03/09 07:00:37;;;;;;;28.90;17.03;;;6.20;99.90;;;;;;800793;179;26456;-81
2024/03/09 07:03:04;;;;;;;35.03;17.73;;;6.20;99.90;;;;;;789878;182;26446;-80
2024/03/09 07:05:30;;;;;;;32.73;17.30;;;6.20;99.90;;;;;;790248;181;26428;-79
2024/03/09 07:07:55;;;;;;;32.40;17.63;;;6.30;99.90;;;;;;785856;182;26648;-80
2024/03/09 07:10:22;;;;;;;30.43;17.73;;;6.20;99.90;;;;;;786223;182;26632;-80
2024/03/09 07:12:49;;;;;;;33.50;17.97;;;6.30;99.90;;;;;;787916;181;26448;-80
2024/03/09 07:15:15;;;;;;;29.43;17.70;;;6.30;99.90;;;;;;790496;182;26450;-78
2024/03/09 07:17:45;;;;;;;28.70;17.57;;;6.30;99.90;;;;;;790474;182;26428;-79
2024/03/09 07:20:12;;;;;;;30.50;17.03;;;6.30;99.90;;;;;;797159;179;26990;-79
2024/03/09 07:22:41;;;;;;;26.20;16.57;;;6.30;99.90;;;;;;797858;179;27036;-79
2024/03/09 07:25:09;;;;;;;33.40;17.90;;;6.40;99.90;;;;;;797819;179;26448;-79
2024/03/09 07:27:35;;;;;;;31.73;17.00;;;6.40;99.90;;;;;;789414;181;26453;-80
2024/03/09 07:30:04;;;;;;;29.57;17.00;;;6.40;99.90;;;;;;798905;177;26447;-79
2024/03/09 07:32:29;;;;;;;30.47;16.87;;;6.50;99.90;;;;;;796920;179;26444;-79
2024/03/09 07:34:56;;;;;;;32.17;17.33;;;6.50;99.90;;;;;;796977;180;26505;-78
2024/03/09 07:37:22;;;;;;;32.13;17.83;;;6.60;99.90;;;;;;798476;177;26478;-80
2024/03/09 07:39:49;;;;;;;28.90;17.67;;;6.60;99.90;;;;;;799398;179;26494;-79
2024/03/09 07:42:17;;;;;;;32.07;19.17;;;6.70;99.90;;;;;;798082;179;26469;-79
2024/03/09 07:44:42;;;;;;;32.07;18.20;;;6.70;99.90;;;;;;798539;179;26454;-78
2024/03/09 07:47:09;;;;;;;28.90;17.90;;;6.80;99.90;;;;;;796101;179;26438;-78
2024/03/09 07:49:37;;;;;;;30.93;17.50;;;6.80;99.90;;;;;;793202;180;26467;-79
2024/03/09 07:52:02;;;;;;;31.70;19.00;;;6.80;99.90;;;;;;797175;180;26455;-78
2024/03/09 07:54:29;;;;;;;32.17;18.43;;;6.80;99.90;;;;;;797643;180;26451;-79
2024/03/09 07:56:56;;;;;;;29.80;17.63;;;6.80;99.90;;;;;;796407;179;26539;-78
2024/03/09 07:59:22;;;;;;;32.07;17.50;;;6.90;99.90;;;;;;797840;180;26478;-79
2024/03/09 08:01:49;;;;;;;32.77;18.33;;;7.00;99.90;;;;;;800861;178;26433;-81
2024/03/09 08:04:17;;;;;;;29.00;17.50;;;7.00;99.90;;;;;;801609;179;26996;-79
2024/03/09 08:06:45;;;;;;;31.27;17.17;;;7.00;99.90;;;;;;787739;181;26447;-80
2024/03/09 08:09:13;;;;;;;29.73;17.17;;;7.20;99.90;;;;;;787116;181;26472;-79
2024/03/09 08:11:36;;;;;;;29.03;16.57;;;7.30;99.90;;;;;;789356;181;26455;-80
2024/03/09 08:14:02;;;;;;;28.47;17.03;;;7.30;99.90;;;;;;799115;179;26466;-80
2024/03/09 08:16:29;;;;;;;28.07;16.50;;;7.30;99.90;;;;;;799473;179;26445;-79
2024/03/09 08:18:55;;;;;;;27.57;16.47;;;7.30;99.90;;;;;;798550;179;27211;-79
2024/03/09 08:21:24;;;;;;;29.13;17.63;;;7.40;99.90;;;;;;798877;180;26596;-79
2024/03/09 08:23:49;;;;;;;31.13;18.27;;;7.50;99.90;;;;;;797510;179;26613;-80
2024/03/09 08:26:15;;;;;;;30.23;17.10;;;7.60;99.90;;;;;;795013;180;26450;-79
2024/03/09 08:28:42;;;;;;;31.77;16.60;;;7.70;99.60;;;;;;797172;177;26608;-79
2024/03/09 08:31:09;;;;;;;31.40;16.67;;;7.70;99.60;;;;;;798947;179;26979;-79
2024/03/09 08:33:35;;;;;;;31.03;16.30;;;7.70;99.50;;;;;;798700;180;26476;-79
2024/03/09 08:36:02;;;;;;;28.33;16.33;;;7.70;99.60;;;;;;797755;179;26473;-80
2024/03/09 08:38:28;;;;;;;31.67;17.20;;;7.80;99.10;;;;;;798348;179;26486;-80
2024/03/09 08:40:55;;;;;;;28.57;16.60;;;7.90;98.60;;;;;;795193;179;26472;-80
2024/03/09 08:43:22;;;;;;;25.47;16.63;;;8.00;98.60;;;;;;797621;180;26598;-79
2024/03/09 08:45:50;;;;;;;29.33;16.60;;;8.10;98.50;;;;;;799262;179;26467;-80
2024/03/09 08:48:15;;;;;;;29.60;17.07;;;8.20;97.80;;;;;;797309;179;26468;-80
2024/03/09 08:50:41;;;;;;;28.43;16.37;;;8.30;98.10;;;;;;795877;180;26642;-80
2024/03/09 08:53:08;;;;;;;27.10;16.50;;;8.30;98.00;;;;;;798827;180;26640;-80
2024/03/09 08:55:35;;;;;;;27.53;16.47;;;8.40;97.40;;;;;;798410;177;26462;-80
2024/03/09 08:58:01;;;;;;;30.17;16.80;;;8.50;96.80;;;;;;797632;180;26466;-79
2024/03/09 09:00:28;;;;;;;31.57;16.30;;;8.50;96.70;;;;;;797665;180;26435;-81
2024/03/09 09:02:56;;;;;;;29.97;16.50;;;8.60;97.30;;;;;;795850;180;26973;-80
2024/03/09 09:05:21;;;;;;;32.47;16.27;;;8.60;96.90;;;;;;796137;180;26966;-79
2024/03/09 09:07:48;;;;;;;29.40;16.77;;;8.80;96.20;;;;;;797213;177;26493;-80
2024/03/09 09:10:15;;;;;;;28.70;15.90;;;8.90;96.40;;;;;;784154;181;26452;-83
2024/03/09 09:12:41;;;;;;;26.30;16.47;;;9.00;95.90;;;;;;801174;178;27024;-80
2024/03/09 09:15:09;;;;;;;26.33;16.07;;;9.20;96.00;;;;;;789974;181;26452;-78
2024/03/09 09:17:36;;;;;;;28.10;16.70;;;9.30;95.50;;;;;;796287;179;26451;-79
2024/03/09 09:20:04;;;;;;;27.60;15.97;;;9.50;95.40;;;;;;798244;180;26497;-79
2024/03/09 09:22:30;;;;;;;28.57;16.60;;;9.60;94.50;;;;;;786739;181;26438;-80
2024/03/09 09:24:56;;;;;;;29.17;16.47;;;9.60;94.50;;;;;;798206;179;28037;-79
2024/03/09 09:27:26;;;;;;;25.97;16.13;;;9.70;94.60;;;;;;798360;176;27020;-80
2024/03/09 09:29:50;;;;;;;26.70;15.77;;;9.80;94.60;;;;;;787310;173;26492;-84
2024/03/09 09:32:17;;;;;;;26.00;15.83;;;9.90;93.70;;;;;;801357;177;26437;-84
2024/03/09 09:34:44;;;;;;;26.77;17.30;;;9.90;93.70;;;;;;812273;176;26455;-84
2024/03/09 09:37:12;;;;;;;28.43;16.07;;;10.20;92.90;;;;;;807746;174;26424;-84
2024/03/09 09:39:36;;;;;;;28.57;15.30;;;10.10;92.30;;;;;;796383;179;26596;-83
2024/03/09 09:42:03;;;;;;;27.80;16.30;;;10.30;91.20;;;;;;806954;177;26441;-84
2024/03/09 09:44:30;;;;;;;25.23;16.13;;;10.30;92.10;;;;;;816523;174;26403;-84
2024/03/09 09:46:56;;;;;;;28.47;17.00;;;10.30;91.70;;;;;;807605;176;26454;-84
2024/03/09 09:49:23;;;;;;;28.27;16.23;;;10.50;92.10;;;;;;805742;176;26444;-85
2024/03/09 09:51:51;;;;;;;27.30;15.80;;;10.40;91.90;;;;;;792779;177;26586;-83
2024/03/09 09:54:17;;;;;;;27.17;16.33;;;10.50;91.50;;;;;;806788;177;26459;-83
2024/03/09 09:56:44;;;;;;;27.77;15.77;;;10.50;91.60;;;;;;816944;174;26437;-84
2024/03/09 09:59:10;;;;;;;31.73;17.10;;;10.60;91.20;;;;;;815034;174;26409;-84
2024/03/09 10:01:37;;;;;;;26.43;16.50;;;10.60;91.20;;;;;;813583;176;26407;-82
2024/03/09 10:04:04;;;;;;;26.47;16.90;;;10.60;91.50;;;;;;817482;174;26538;-84
2024/03/09 10:06:31;;;;;;;25.37;16.23;;;10.80;91.40;;;;;;805981;177;26425;-83
2024/03/09 10:08:59;;;;;;;25.67;16.13;;;10.80;90.50;;;;;;786143;181;26466;-84
2024/03/09 10:11:24;;;;;;;28.77;16.90;;;10.90;90.40;;;;;;812707;176;26405;-87
2024/03/09 10:13:52;;;;;;;25.67;15.97;;;11.10;90.60;;;;;;805483;174;26468;-84
2024/03/09 10:16:17;;;;;;;26.77;15.87;;;11.10;90.20;;;;;;809112;176;26422;-85
2024/03/09 10:18:44;;;;;;;24.37;16.00;;;11.20;89.40;;;;;;792889;180;26495;-85
2024/03/09 10:21:10;;;;;;;25.53;15.57;;;11.30;88.40;;;;;;808830;176;26449;-85
2024/03/09 10:23:37;;;;;;;26.73;16.27;;;11.40;89.20;;;;;;827081;172;26403;-83
2024/03/09 10:26:06;;;;;;;27.30;16.17;;;11.50;88.80;;;;;;820567;174;26396;-83
2024/03/09 10:28:36;;;;;;;28.27;16.27;;;11.60;86.10;;;;;;817792;173;27107;-83
2024/03/09 10:31:03;;;;;;;24.23;14.80;;;11.60;84.20;;;;;;821505;174;26415;-83
2024/03/09 10:33:34;;;;;;;29.13;16.33;;;11.50;85.00;;;;;;825370;173;26424;-84
2024/03/09 10:35:59;;;;;;;28.00;16.17;;;11.50;87.60;;;;;;794507;179;26459;-83
2024/03/09 10:38:27;;;;;;;27.63;16.03;;;11.50;90.10;;;;;;816659;174;26428;-84
2024/03/09 10:40:51;;;;;;;28.20;15.73;;;11.40;86.60;;;;;;794213;179;26498;-84
2024/03/09 10:43:20;;;;;;;25.57;15.90;;;11.60;86.80;;;;;;794145;180;26423;-84
2024/03/09 10:45:46;;;;;;;27.90;16.40;;;11.60;86.90;;;;;;789410;177;26486;-84
2024/03/09 10:48:13;;;;;;;28.93;15.63;;;11.70;86.40;;;;;;816384;173;26441;-84
2024/03/09 10:50:43;;;;;;;25.57;16.23;;;11.90;84.30;;;;;;795403;180;26466;-84
2024/03/09 10:53:23;;;;;;;27.73;16.73;;;12.00;85.80;;;;;;813037;174;26431;-83
2024/03/09 10:55:59;;;;;;;23.30;15.13;;;12.50;86.50;;;;;;802788;174;26438;-83
2024/03/09 10:58:26;;;;;;;26.57;14.63;;;14.00;76.70;;;;;;806417;177;26458;-83
2024/03/09 11:00:54;;;;;;;22.13;14.37;;;15.40;63.00;;;;;;814376;174;26389;-85
2024/03/09 11:03:23;;;;;;;22.97;15.40;;;16.20;56.50;;;;;;819324;174;27016;-84
2024/03/09 11:05:53;;;;;;;24.00;14.70;;;17.30;48.50;;;;;;797819;180;26460;-84
2024/03/09 11:08:18;;;;;;;23.03;16.23;;;17.50;45.10;;;;;;797063;177;26494;-83
2024/03/09 11:10:46;;;;;;;20.00;14.30;;;17.10;46.20;;;;;;818661;174;26424;-83
2024/03/09 11:13:14;;;;;;;24.87;15.67;;;17.10;46.30;;;;;;813384;174;26409;-83
2024/03/09 11:15:41;;;;;;;23.57;15.67;;;17.40;45.40;;;;;;814558;174;27078;-83
2024/03/09 11:18:12;;;;;;;21.93;14.80;;;17.30;45.20;;;;;;815985;174;26429;-84
2024/03/09 11:21:00;;;;;;;24.53;15.60;;;17.80;43.80;;;;;;808664;174;26429;-83
2024/03/09 11:23:26;;;;;;;21.90;15.60;;;18.10;44.20;;;;;;817744;174;26935;-84
2024/03/09 11:25:53;;;;;;;23.57;15.60;;;18.60;43.40;;;;;;814134;171;26417;-84
2024/03/09 11:28:22;;;;;;;24.23;14.90;;;18.20;41.30;;;;;;794636;180;26561;-85
2024/03/09 11:31:16;;;;;;;24.87;15.53;;;18.00;44.90;;;;;;819581;174;26408;-85
2024/03/09 11:33:45;;;;;;;23.57;15.30;;;18.50;44.70;;;;;;823144;173;27019;-84
2024/03/09 11:36:23;;;;;;;21.03;16.17;;;19.70;40.20;;;;;;796337;178;26491;-84
2024/03/09 11:38:55;;;;;;;21.47;15.97;;;19.90;38.60;;;;;;824385;174;26975;-83
2024/03/09 11:41:23;;;;;;;21.60;15.00;;;19.40;40.30;;;;;;823271;174;26421;-84
2024/03/09 11:43:49;;;;;;;20.10;14.83;;;19.80;40.90;;;;;;810619;172;27005;-84
2024/03/09 11:46:16;;;;;;;21.10;15.77;;;19.80;38.60;;;;;;815680;174;26445;-84
2024/03/09 11:48:42;;;;;;;22.17;15.83;;;19.90;38.10;;;;;;809710;177;26442;-84
2024/03/09 11:51:10;;;;;;;28.53;15.60;;;20.50;39.00;;;;;;818816;174;26400;-84
2024/03/09 11:53:36;;;;;;;20.40;15.27;;;20.90;37.10;;;;;;810312;176;26424;-83
2024/03/09 11:56:03;;;;;;;20.07;13.37;;;21.30;36.70;;;;;;792312;179;27005;-85
2024/03/09 11:58:30;;;;;;;21.80;15.10;;;20.70;36.70;;;;;;821320;173;26415;-84
2024/03/09 12:00:56;;;;;;;23.17;14.60;;;20.50;37.30;;;;;;825345;174;26412;-83
2024/03/09 12:03:23;;;;;;;23.60;14.00;;;21.20;36.80;;;;;;805172;177;26433;-82
2024/03/09 12:05:50;;;;;;;21.20;14.93;;;21.40;37.40;;;;;;820207;174;26580;-83
2024/03/09 12:08:16;;;;;;;20.87;14.37;;;21.80;36.10;;;;;;814962;174;26444;-85
2024/03/09 12:10:44;;;;;;;21.23;14.20;;;21.80;33.90;;;;;;807872;176;26426;-84
2024/03/09 12:13:11;;;;;;;19.93;13.97;;;21.70;33.70;;;;;;811120;174;26441;-83
2024/03/09 12:15:39;;;;;;;23.53;14.40;;;21.00;34.00;;;;;;818013;174;26419;-84
2024/03/09 12:18:06;;;;;;;22.33;14.33;;;21.60;34.60;;;;;;794008;180;26472;-84
2024/03/09 12:20:35;;;;;;;19.50;14.40;;;22.40;36.20;;;;;;789107;176;27142;-85
2024/03/09 12:23:03;;;;;;;19.60;14.27;;;22.50;34.10;;;;;;817996;174;27070;-85
2024/03/09 12:25:30;;;;;;;19.20;13.97;;;22.70;32.30;;;;;;796210;180;26455;-85
2024/03/09 12:27:57;;;;;;;20.85;15.65;;;23.70;32.90;;;;;;813027;175;27977;-79
2024/03/09 12:30:24;;;;;;;18.60;14.85;;;23.30;31.00;;;;;;813208;176;29811;-82
2024/03/09 12:32:51;;;;;;;19.13;14.50;;;22.90;31.80;;;;;;800104;176;27026;-81
2024/03/09 12:35:17;;;;;;;18.00;13.03;;;21.60;32.90;;;;;;816636;176;26436;-80
2024/03/09 12:37:46;;;;;;;22.63;13.53;;;21.60;35.50;;;;;;816608;176;26456;-81